Terminal Aerodrome Forecast
Issued by NWS Louisville, KY

Home | Current Version | Previous Version | Text Only | Print | Product List | Glossary On
Versions: 1 2 3 4 5 6 7 8 9 10 11 12 13 14 15 16 17 18 19 20 21 22 23 24
669
FTUS43 KLMK 152011 AAA
TAFSDF
TAF AMD
KSDF 152011Z 1520/1624 23014G26KT P6SM VCSH SCT035 BKN060
     FM152300 22014G22KT P6SM VCSH BKN035 WS020/24045KT
     FM160500 23015G26KT 5SM -SHRA OVC015
     FM160900 25013KT 4SM SHRA SCT009 OVC015 WS020/24045KT
      TEMPO 1609/1613 BKN009
     FM161600 35010KT P6SM -SHRA BKN025
     FM161900 34010KT P6SM SCT025=

USA.gov is the U.S. government's official web portal to all federal, state and local government web resources and services.